New Braintree, Massachusetts
Current Conditions -  °F | °C
As of 11:54 PM on Friday 31 Oct 2014 (Local Time) from KORH Reporting Station
Overcast Overcast  
Wind Chill: 39°   Ceiling: 4500
Heat Index: 43°   Visibility: 10mi
Dew Point: 34°   Wind: 6mph
Humidity: 71%   Direction: 40°NE
Pressure: 29.95"   Gusts: NA
Location:  42.3°N, 72.21°W
Report Text: KORH 010354Z AUTO 04005KT 10SM BKN045 OVC085 06/01 A2995 RMK AO2 SLP149 T00610011
Loading
Personal Weather Stations






























Interactive Weather Map
Tropical Storm Tracking
New forecast layout! Learn more

10-Day Weather Forecast

Advertisements
Track Severe Weather on mobile